Time;durP1;ratioP1;P1;durP2;ratioP2;P2;SDS_P1;SDS_P2;PMS_P1;PMS_P2;Temp;Humidity;BMP_temperature;BMP_pressure;BME280_temperature;BME280_humidity;BME280_pressure;Samples;Min_cycle;Max_cycle;Signal;HPM_P1;HPM_P2
2021/04/14 00:01:36;;;;;;;55.85;30.70;;;;;;;8.97;56.35;101116.77;1766033;80;25622;-59
2021/04/14 00:04:07;;;;;;;60.05;31.68;;;;;;;9.03;56.35;101121.18;1736878;81;25663;-59
2021/04/14 00:06:37;;;;;;;57.55;29.50;;;;;;;9.06;56.29;101118.74;1745848;80;27538;-59
2021/04/14 00:09:06;;;;;;;56.02;30.30;;;;;;;9.04;56.38;101118.87;1769906;81;25822;-59
2021/04/14 00:11:35;;;;;;;54.00;29.55;;;;;;;8.96;56.08;101113.23;1779421;79;25601;-59
2021/04/14 00:14:06;;;;;;;56.25;30.88;;;;;;;8.95;56.20;101118.73;1788382;79;25699;-58
2021/04/14 00:16:34;;;;;;;48.20;29.27;;;;;;;8.98;55.95;101119.34;1777821;79;26156;-59
2021/04/14 00:19:04;;;;;;;51.85;29.32;;;;;;;9.02;55.59;101114.59;1801548;79;28472;-58
2021/04/14 00:21:33;;;;;;;58.15;29.07;;;;;;;9.06;55.42;101116.06;1783384;79;25718;-58
2021/04/14 00:24:02;;;;;;;48.50;29.72;;;;;;;9.10;55.30;101112.18;1806758;78;25665;-59
2021/04/14 00:26:30;;;;;;;53.13;31.82;;;;;;;9.13;55.17;101108.40;1740205;81;25737;-59
2021/04/14 00:28:58;;;;;;;53.73;30.85;;;;;;;9.12;54.97;101108.02;1748483;82;25691;-60
2021/04/14 00:31:35;;;;;;;49.63;28.10;;;;;;;9.13;54.84;101111.08;1748247;81;27529;-57
2021/04/14 00:34:15;;;;;;;53.05;30.32;;;;;;;9.12;54.88;101105.34;1766843;80;26104;-58
2021/04/14 00:36:45;;;;;;;52.85;28.60;;;;;;;9.12;54.87;101108.02;1753705;81;25641;-58
2021/04/14 00:39:23;;;;;;;50.52;30.27;;;;;;;9.04;55.36;101104.11;1758820;81;26006;-59
2021/04/14 00:41:54;;;;;;;51.05;29.40;;;;;;;9.00;55.21;101101.78;1781520;80;25707;-60
2021/04/14 00:44:23;;;;;;;50.73;28.73;;;;;;;8.93;55.38;101100.05;1781769;80;27523;-60
2021/04/14 00:46:52;;;;;;;52.25;29.65;;;;;;;8.89;56.03;101101.27;1778201;80;25675;-59
2021/04/14 00:49:20;;;;;;;52.58;28.25;;;;;;;8.81;55.61;101096.98;1735767;81;25717;-59
2021/04/14 00:51:48;;;;;;;49.75;30.10;;;;;;;8.77;55.47;101103.06;1766387;81;25962;-58
2021/04/14 00:54:17;;;;;;;57.30;29.52;;;;;;;8.71;55.66;101099.48;1768546;81;26190;-59
2021/04/14 00:56:45;;;;;;;48.63;30.20;;;;;;;8.63;57.11;101108.13;1750149;81;27549;-59
2021/04/14 00:59:13;;;;;;;49.85;29.27;;;;;;;8.54;56.43;101097.59;1766116;80;26180;-59
2021/04/14 01:01:41;;;;;;;55.58;30.60;;;;;;;8.49;56.66;101093.53;1762177;80;25664;-59
2021/04/14 01:04:09;;;;;;;54.10;29.92;;;;;;;8.45;56.89;101096.91;1781790;80;26278;-59
2021/04/14 01:06:38;;;;;;;49.03;29.82;;;;;;;8.38;56.74;101094.31;1782134;80;25726;-59
2021/04/14 01:09:06;;;;;;;53.33;32.00;;;;;;;8.37;56.54;101094.81;1784320;79;27549;-59
2021/04/14 01:11:34;;;;;;;57.65;31.35;;;;;;;8.32;56.69;101098.30;1785831;80;25696;-59
2021/04/14 01:14:02;;;;;;;52.33;30.32;;;;;;;8.26;56.66;101099.61;1782035;80;25703;-59
2021/04/14 01:16:30;;;;;;;52.62;29.55;;;;;;;8.24;57.05;101103.38;1770194;80;25726;-59
2021/04/14 01:18:59;;;;;;;55.30;30.27;;;;;;;8.22;57.02;101105.30;1767600;78;25759;-59
2021/04/14 01:21:40;;;;;;;54.03;33.18;;;;;;;8.20;56.88;101095.20;1760563;78;27606;-59
2021/04/14 01:24:14;;;;;;;53.15;29.57;;;;;;;8.16;56.95;101091.87;1760499;78;25760;-59
2021/04/14 01:26:42;;;;;;;55.83;30.45;;;;;;;8.13;56.94;101092.95;1773144;78;25481;-60
2021/04/14 01:29:12;;;;;;;59.70;32.25;;;;;;;8.11;57.02;101091.36;1808826;79;26132;-60
2021/04/14 01:31:41;;;;;;;54.13;30.12;;;;;;;8.07;57.34;101092.08;1778913;79;25650;-59
2021/04/14 01:34:15;;;;;;;56.63;31.52;;;;;;;8.04;57.75;101090.95;1813358;79;27577;-59
2021/04/14 01:36:44;;;;;;;52.38;28.90;;;;;;;7.99;57.59;101085.08;1813244;78;25718;-59
2021/04/14 01:39:14;;;;;;;50.17;29.20;;;;;;;7.99;58.17;101091.78;1817341;78;25639;-57
2021/04/14 01:41:45;;;;;;;55.55;27.07;;;;;;;7.99;58.21;101085.08;1742248;82;25700;-58
2021/04/14 01:44:13;;;;;;;50.60;28.77;;;;;;;8.01;58.71;101082.28;1815721;78;25646;-59
2021/04/14 01:46:42;;;;;;;53.28;27.90;;;;;;;8.06;58.61;101087.68;1800536;78;28493;-60
2021/04/14 01:49:12;;;;;;;48.68;28.25;;;;;;;8.08;58.52;101085.75;1780986;79;25725;-59
2021/04/14 01:51:41;;;;;;;44.35;27.15;;;;;;;8.11;58.88;101081.98;1799253;79;25670;-59
2021/04/14 01:54:12;;;;;;;47.25;27.07;;;;;;;8.12;58.97;101076.50;1779574;79;25732;-59
2021/04/14 01:56:41;;;;;;;46.15;26.93;;;;;;;8.13;58.68;101072.02;1787793;78;25730;-59
2021/04/14 01:59:12;;;;;;;50.45;26.35;;;;;;;8.15;58.79;101070.09;1787594;79;28521;-59
2021/04/14 02:01:40;;;;;;;46.40;25.68;;;;;;;8.15;58.87;101072.27;1804960;78;25706;-59
2021/04/14 02:04:09;;;;;;;49.23;28.60;;;;;;;8.15;59.11;101070.92;1803783;78;25789;-60
2021/04/14 02:06:37;;;;;;;48.38;27.90;;;;;;;8.15;58.55;101076.78;1812687;79;26372;-59
2021/04/14 02:09:07;;;;;;;50.48;26.65;;;;;;;8.16;58.43;101058.37;1810284;79;25694;-60
2021/04/14 02:11:35;;;;;;;48.35;28.30;;;;;;;8.18;58.11;101064.98;1780697;80;28673;-58
2021/04/14 02:14:04;;;;;;;55.50;28.00;;;;;;;8.17;57.84;101060.58;1798486;79;25894;-59
2021/04/14 02:16:31;;;;;;;48.42;27.75;;;;;;;8.13;57.82;101061.30;1809980;79;25497;-59
2021/04/14 02:19:01;;;;;;;50.92;28.60;;;;;;;8.08;57.68;101060.77;1808217;79;25509;-59
2021/04/14 02:21:29;;;;;;;53.15;28.35;;;;;;;8.04;57.49;101060.13;1808857;79;25716;-59
2021/04/14 02:23:59;;;;;;;56.23;29.20;;;;;;;8.00;57.46;101060.00;1736326;80;28455;-59
2021/04/14 02:26:28;;;;;;;44.73;29.00;;;;;;;7.95;57.42;101054.11;1730634;81;26149;-58
2021/04/14 02:28:56;;;;;;;45.25;26.65;;;;;;;7.90;57.62;101054.94;1741560;81;25619;-58
2021/04/14 02:31:30;;;;;;;49.38;28.80;;;;;;;7.83;57.72;101058.55;1743496;81;26272;-59
2021/04/14 02:34:06;;;;;;;46.35;28.10;;;;;;;7.74;57.43;101054.73;1754146;81;25636;-59
2021/04/14 02:36:35;;;;;;;45.58;26.97;;;;;;;7.69;57.92;101055.52;1714067;83;27540;-59
2021/04/14 02:39:10;;;;;;;53.98;29.60;;;;;;;7.66;58.28;101058.44;1782247;79;25782;-59
2021/04/14 02:41:40;;;;;;;49.03;30.62;;;;;;;7.59;58.29;101061.16;1793349;79;25645;-59
2021/04/14 02:44:08;;;;;;;54.25;29.95;;;;;;;7.50;58.21;101060.85;1781079;79;25538;-59
2021/04/14 02:46:36;;;;;;;51.68;29.92;;;;;;;7.45;58.47;101061.67;1796260;79;26092;-58
2021/04/14 02:49:05;;;;;;;55.55;30.90;;;;;;;7.40;58.65;101056.27;1794468;79;28583;-59
2021/04/14 02:51:33;;;;;;;64.25;32.28;;;;;;;7.39;58.36;101061.25;1794361;79;26097;-59
2021/04/14 02:54:02;;;;;;;50.65;29.67;;;;;;;7.40;58.58;101059.79;1789846;79;25784;-59
2021/04/14 02:56:30;;;;;;;52.90;28.60;;;;;;;7.36;58.52;101056.48;1799398;79;25659;-59
2021/04/14 02:59:00;;;;;;;51.15;28.65;;;;;;;7.34;58.63;101058.43;1798597;78;26144;-59
2021/04/14 03:01:29;;;;;;;55.75;31.20;;;;;;;7.31;58.82;101056.42;1810344;79;28447;-59
2021/04/14 03:04:03;;;;;;;45.80;28.38;;;;;;;7.23;58.68;101056.98;1823323;77;25696;-59
2021/04/14 03:06:31;;;;;;;54.63;30.43;;;;;;;7.21;58.75;101056.23;1818513;78;25605;-59
2021/04/14 03:08:59;;;;;;;56.25;29.05;;;;;;;7.15;59.00;101050.81;1789547;78;26424;-58
2021/04/14 03:11:27;;;;;;;58.00;29.37;;;;;;;7.13;59.07;101052.73;1810442;78;25634;-58
2021/04/14 03:13:57;;;;;;;49.15;29.37;;;;;;;7.09;59.34;101047.70;1796967;79;27586;-59
2021/04/14 03:16:26;;;;;;;56.50;31.02;;;;;;;7.06;59.14;101048.78;1782792;79;25655;-59
2021/04/14 03:18:54;;;;;;;51.83;29.20;;;;;;;7.06;59.44;101050.12;1810092;79;25649;-59
2021/04/14 03:21:22;;;;;;;54.93;30.95;;;;;;;7.06;59.28;101050.12;1814190;79;25823;-58
2021/04/14 03:23:51;;;;;;;50.55;29.25;;;;;;;7.04;59.47;101048.90;1806795;78;25749;-58
2021/04/14 03:26:19;;;;;;;46.35;29.20;;;;;;;7.03;59.50;101052.53;1810185;79;27520;-59
2021/04/14 03:28:48;;;;;;;48.98;27.77;;;;;;;7.06;59.79;101048.78;1818615;78;25764;-59
2021/04/14 03:31:16;;;;;;;52.83;29.92;;;;;;;7.08;60.07;101046.86;1751590;81;25778;-59
2021/04/14 03:33:45;;;;;;;51.53;28.57;;;;;;;7.11;60.23;101046.66;1780008;80;26371;-59
2021/04/14 03:36:13;;;;;;;48.90;28.25;;;;;;;7.15;60.91;101040.61;1803914;78;26075;-59
2021/04/14 03:38:41;;;;;;;55.92;28.60;;;;;;;7.21;61.31;101038.83;1743773;81;27537;-59
2021/04/14 03:41:09;;;;;;;47.38;27.75;;;;;;;7.27;61.64;101033.53;1792519;78;25668;-58
2021/04/14 03:43:37;;;;;;;49.33;25.68;;;;;;;7.30;60.93;101037.34;1792030;79;25613;-59
2021/04/14 03:46:06;;;;;;;54.93;27.52;;;;;;;7.35;61.95;101035.19;1799518;78;26496;-59
2021/04/14 03:48:35;;;;;;;45.70;26.37;;;;;;;7.26;61.56;101038.02;1804180;78;25711;-60
2021/04/14 03:51:04;;;;;;;49.93;27.07;;;;;;;7.30;61.43;101044.88;1815476;78;27524;-59
2021/04/14 03:53:35;;;;;;;52.50;29.48;;;;;;;7.37;61.35;101043.97;1812799;78;25641;-59
2021/04/14 03:56:11;;;;;;;52.27;28.17;;;;;;;7.45;61.26;101047.42;1822925;77;25779;-59
2021/04/14 03:58:43;;;;;;;66.45;27.85;;;;;;;7.54;61.33;101040.56;1828005;78;25650;-58
2021/04/14 04:01:17;;;;;;;51.10;28.70;;;;;;;7.63;60.93;101039.91;1811656;78;25665;-59
2021/04/14 04:03:45;;;;;;;50.58;27.98;;;;;;;7.68;60.78;101039.08;1739946;81;27537;-59
2021/04/14 04:06:12;;;;;;;54.77;29.12;;;;;;;7.72;60.23;101039.25;1785059;79;25650;-60
2021/04/14 04:08:41;;;;;;;54.03;29.60;;;;;;;7.77;60.12;101034.39;1755013;80;25472;-58
2021/04/14 04:11:10;;;;;;;57.45;29.07;;;;;;;7.82;59.91;101036.27;1773867;80;26429;-59
2021/04/14 04:13:38;;;;;;;60.80;28.62;;;;;;;7.86;59.74;101032.02;1762508;80;26076;-59
2021/04/14 04:16:06;;;;;;;59.93;29.55;;;;;;;7.89;59.63;101038.50;1812528;78;27530;-59
2021/04/14 04:18:36;;;;;;;43.73;27.90;;;;;;;7.91;59.42;101039.25;1815443;78;26057;-58
2021/04/14 04:21:06;;;;;;;50.55;28.62;;;;;;;7.92;59.39;101036.94;1812657;78;25718;-60
2021/04/14 04:23:34;;;;;;;49.85;30.10;;;;;;;7.91;59.56;101033.39;1816542;77;26690;-57
2021/04/14 04:26:04;;;;;;;73.57;30.15;;;;;;;7.95;59.51;101040.72;1815711;78;25697;-58
2021/04/14 04:28:33;;;;;;;63.78;30.85;;;;;;;8.00;59.44;101043.93;1808567;78;27695;-59
2021/04/14 04:31:02;;;;;;;62.55;30.45;;;;;;;8.04;59.43;101036.52;1804979;78;26147;-58
2021/04/14 04:33:30;;;;;;;61.08;30.12;;;;;;;8.10;59.37;101041.41;1733463;81;25710;-59
2021/04/14 04:35:58;;;;;;;65.20;30.55;;;;;;;8.16;59.34;101044.97;1776520;80;25981;-59
2021/04/14 04:38:27;;;;;;;72.50;30.60;;;;;;;8.20;59.08;101039.77;1776834;80;25737;-59
2021/04/14 04:40:56;;;;;;;77.53;37.13;;;;;;;8.26;59.02;101041.98;1779931;79;27534;-57
2021/04/14 04:43:24;;;;;;;60.17;30.75;;;;;;;8.32;59.12;101039.83;1797873;79;25747;-60
2021/04/14 04:45:53;;;;;;;64.40;33.73;;;;;;;8.36;59.20;101043.50;1808779;79;25753;-58
2021/04/14 04:48:20;;;;;;;60.03;31.68;;;;;;;8.42;58.96;101043.03;1808147;79;25615;-61
2021/04/14 04:50:48;;;;;;;56.55;33.08;;;;;;;8.50;58.77;101041.63;1741937;82;26065;-59
2021/04/14 04:53:22;;;;;;;58.40;32.58;;;;;;;8.54;58.79;101041.28;1749330;81;28465;-59
2021/04/14 04:55:52;;;;;;;59.13;33.58;;;;;;;8.61;58.71;101043.02;1742936;81;26193;-59
2021/04/14 04:58:21;;;;;;;67.40;35.38;;;;;;;8.70;58.78;101042.78;1805529;78;25747;-59
2021/04/14 05:00:52;;;;;;;61.98;33.23;;;;;;;8.78;58.33;101045.77;1729924;81;25689;-61
2021/04/14 05:03:26;;;;;;;72.90;35.08;;;;;;;8.86;58.29;101040.66;1796812;79;26319;-62
2021/04/14 05:06:00;;;;;;;74.20;33.40;;;;;;;8.95;58.01;101048.47;1802310;78;28424;-58
2021/04/14 05:08:28;;;;;;;72.53;34.10;;;;;;;9.03;57.88;101055.94;1798910;79;26080;-60
2021/04/14 05:10:57;;;;;;;68.80;32.15;;;;;;;9.08;57.59;101053.73;1790852;78;25760;-57
2021/04/14 05:13:25;;;;;;;68.02;31.35;;;;;;;9.14;57.52;101043.87;1743685;80;25742;-58
2021/04/14 05:15:54;;;;;;;56.48;32.08;;;;;;;9.22;57.33;101043.27;1775763;79;25643;-58
2021/04/14 05:18:22;;;;;;;60.63;31.00;;;;;;;9.27;57.06;101046.45;1737101;82;27531;-58
2021/04/14 05:20:51;;;;;;;61.85;31.62;;;;;;;9.32;56.94;101041.56;1807489;79;25744;-58
2021/04/14 05:23:19;;;;;;;64.40;31.05;;;;;;;9.34;56.76;101045.45;1794641;78;25703;-57
2021/04/14 05:25:47;;;;;;;58.08;32.03;;;;;;;9.35;56.83;101045.83;1806401;78;26923;-59
2021/04/14 05:28:18;;;;;;;53.73;30.65;;;;;;;9.39;57.07;101054.02;1796711;78;25688;-59
2021/04/14 05:30:45;;;;;;;60.48;31.45;;;;;;;9.36;56.73;101048.41;1790290;79;27544;-58
2021/04/14 05:33:13;;;;;;;123.28;33.25;;;;;;;9.37;56.59;101053.28;1799914;79;25735;-58
2021/04/14 05:35:42;;;;;;;53.90;30.65;;;;;;;9.39;56.56;101054.86;1800643;79;25687;-58
2021/04/14 05:38:11;;;;;;;59.00;30.08;;;;;;;9.47;56.61;101049.36;1797251;79;26554;-57
2021/04/14 05:40:40;;;;;;;50.88;29.40;;;;;;;9.53;56.45;101052.92;1730229;82;25777;-60
2021/04/14 05:43:16;;;;;;;53.58;29.35;;;;;;;9.58;56.18;101055.24;1751590;79;27332;-60
2021/04/14 05:45:47;;;;;;;57.50;29.30;;;;;;;9.63;56.06;101057.06;1747307;79;26136;-60
2021/04/14 05:48:15;;;;;;;54.13;30.55;;;;;;;9.69;55.94;101060.58;1754524;81;27078;-59
2021/04/14 05:50:43;;;;;;;53.65;30.05;;;;;;;9.80;55.83;101059.74;1731982;82;25667;-58
2021/04/14 05:53:11;;;;;;;61.02;30.25;;;;;;;9.92;55.58;101054.70;1735652;82;26565;-60
2021/04/14 05:55:40;;;;;;;57.95;30.95;;;;;;;10.00;55.31;101055.42;1754943;81;27300;-59
2021/04/14 05:58:07;;;;;;;59.90;31.27;;;;;;;10.12;55.12;101048.19;1750445;80;25511;-60
2021/04/14 06:00:35;;;;;;;67.78;31.45;;;;;;;10.20;54.94;101057.81;1752932;80;25749;-59
2021/04/14 06:03:05;;;;;;;71.70;34.85;;;;;;;10.27;54.97;101052.28;1759758;81;25703;-60
2021/04/14 06:05:33;;;;;;;64.70;35.78;;;;;;;10.30;54.91;101049.34;1715058;82;25734;-59
2021/04/14 06:08:00;;;;;;;61.85;33.50;;;;;;;10.31;54.61;101051.06;1741591;81;27537;-59
2021/04/14 06:10:28;;;;;;;74.58;36.95;;;;;;;10.30;54.75;101048.51;1732944;82;26653;-58
2021/04/14 06:12:56;;;;;;;67.50;35.23;;;;;;;10.28;54.84;101049.96;1790379;79;25664;-58
2021/04/14 06:15:33;;;;;;;80.50;38.85;;;;;;;10.28;54.65;101046.43;1787984;79;26862;-59
2021/04/14 06:18:02;;;;;;;81.00;40.90;;;;;;;10.29;54.79;101048.14;1793067;79;26136;-58
2021/04/14 06:20:33;;;;;;;65.67;35.73;;;;;;;10.24;54.46;101055.25;1798953;79;27530;-59
2021/04/14 06:23:05;;;;;;;65.83;34.55;;;;;;;10.27;54.68;101054.13;1798603;79;25631;-59
2021/04/14 06:25:43;;;;;;;61.65;34.45;;;;;;;10.36;54.89;101050.68;1807795;78;25637;-58
2021/04/14 06:28:06;;;;;;;59.83;34.00;;;;;;;10.46;54.79;101048.96;1708502;82;26372;-58
2021/04/14 06:30:37;;;;;;;61.45;32.25;;;;;;;10.53;54.90;101039.89;1700031;83;25704;-59
2021/04/14 06:33:10;;;;;;;61.23;32.75;;;;;;;10.65;54.50;101041.53;1693652;83;28526;-59
2021/04/14 06:35:38;;;;;;;61.13;31.27;;;;;;;10.77;54.18;101036.09;1693821;83;25488;-59
2021/04/14 06:38:07;;;;;;;62.80;34.45;;;;;;;10.87;54.11;101038.84;1736595;82;25720;-59
2021/04/14 06:43:51;;;;;;;61.05;33.20;;;;;;;11.17;53.54;101035.83;1747460;82;26183;-58
2021/04/14 06:46:26;;;;;;;55.85;34.35;;;;;;;11.26;53.41;101036.38;1728183;82;27781;-60
2021/04/14 06:49:36;;;;;;;56.77;32.85;;;;;;;11.46;53.36;101029.23;1711404;83;25771;-59
2021/04/14 06:52:28;;;;;;;59.67;32.67;;;;;;;11.58;53.01;101029.50;1685568;84;25709;-60
2021/04/14 06:55:05;;;;;;;108.35;35.25;;;;;;;11.64;52.61;101020.02;1676674;82;25818;-59
2021/04/14 06:57:40;;;;;;;68.95;34.45;;;;;;;11.70;52.36;101014.07;1659747;85;25548;-59
2021/04/14 07:00:20;;;;;;;52.60;31.25;;;;;;;11.82;52.35;101010.77;1657883;85;28492;-60
2021/04/14 07:03:12;;;;;;;55.50;35.35;;;;;;;12.01;51.84;101013.17;1814799;76;32148;-59
2021/04/14 07:05:46;;;;;;;50.80;30.25;;;;;;;12.04;51.16;101011.55;1791632;79;25710;-60
2021/04/14 07:08:28;;;;;;;61.80;30.45;;;;;;;12.00;51.43;101016.37;1782890;78;32571;-58
2021/04/14 07:11:00;;;;;;;65.60;29.80;;;;;;;12.07;51.47;101015.30;1809613;78;25960;-60
2021/04/14 07:13:32;;;;;;;49.18;28.70;;;;;;;12.14;51.56;101015.59;1805607;79;25709;-60
2021/04/14 07:16:43;;;;;;;48.20;28.80;;;;;;;12.06;51.32;101016.28;1805516;79;25726;-60
2021/04/14 07:19:44;;;;;;;56.20;28.65;;;;;;;11.95;51.26;101012.36;1785957;79;25736;-60
2021/04/14 07:22:21;;;;;;;41.37;26.50;;;;;;;11.89;51.59;101019.99;1773734;80;27522;-59
2021/04/14 07:24:54;;;;;;;40.60;23.85;;;;;;;11.80;52.19;101019.98;1761678;79;25684;-59
2021/04/14 07:27:28;;;;;;;;;;;;;;;11.76;52.14;101014.02;1757644;80;25641;-59
2021/04/14 07:30:13;;;;;;;33.90;17.92;;;;;;;11.88;52.43;101011.55;1754809;80;26128;-59
2021/04/14 07:33:02;;;;;;;28.87;17.80;;;;;;;11.96;52.36;101004.13;1769019;79;25740;-60
2021/04/14 07:35:40;;;;;;;40.17;18.10;;;;;;;11.94;52.62;101013.34;1776424;79;27630;-58
2021/04/14 07:38:29;;;;;;;49.48;19.73;;;;;;;11.99;52.84;101009.75;1772558;79;26142;-62
2021/04/14 07:41:38;;;;;;;31.45;16.97;;;;;;;12.03;52.66;101012.03;1786221;79;25741;-62
2021/04/14 07:44:40;;;;;;;35.95;18.98;;;;;;;12.14;52.57;101010.20;1778949;79;25795;-61
2021/04/14 07:47:15;;;;;;;33.05;18.30;;;;;;;12.19;52.62;101006.61;1785841;79;26204;-63
2021/04/14 07:49:51;;;;;;;33.23;18.77;;;;;;;12.29;52.46;101003.90;1794522;79;28500;-61
2021/04/14 07:52:24;;;;;;;26.30;16.80;;;;;;;12.32;52.28;101000.93;1790898;79;25645;-62
2021/04/14 07:55:23;;;;;;;26.82;15.43;;;;;;;12.45;52.25;101002.83;1820013;78;25650;-62
2021/04/14 07:57:58;;;;;;;26.00;16.00;;;;;;;12.51;52.26;100998.70;1793407;79;26767;-62
2021/04/14 08:00:42;;;;;;;28.80;17.25;;;;;;;12.70;51.87;100999.17;1769319;79;27519;-62
2021/04/14 08:03:33;;;;;;;26.77;15.75;;;;;;;12.83;51.88;100992.11;1756030;79;26510;-64
2021/04/14 08:06:27;;;;;;;36.08;14.70;;;;;;;12.99;51.66;100986.98;1789963;79;25921;-62
2021/04/14 08:09:18;;;;;;;25.72;14.47;;;;;;;13.20;51.26;100990.45;1785472;79;25963;-62
2021/04/14 08:11:47;;;;;;;45.88;16.15;;;;;;;13.38;51.10;100981.92;1780002;78;25718;-59
2021/04/14 08:14:32;;;;;;;37.08;14.83;;;;;;;13.57;50.66;100982.86;1789314;79;27596;-61
2021/04/14 08:17:02;;;;;;;30.15;13.60;;;;;;;13.79;50.26;100981.59;1773652;80;26114;-58
2021/04/14 08:19:35;;;;;;;32.60;12.28;;;;;;;13.89;49.96;100980.16;1773667;79;25820;-59
2021/04/14 08:22:17;;;;;;;29.32;13.80;;;;;;;13.95;49.23;100975.98;1787561;79;26107;-59
2021/04/14 08:24:54;;;;;;;29.07;13.98;;;;;;;13.95;49.41;100976.83;1727026;81;25693;-59
2021/04/14 08:27:33;;;;;;;24.92;13.65;;;;;;;14.05;48.92;100978.97;1726901;82;27610;-60
2021/04/14 08:30:13;;;;;;;20.25;13.00;;;;;;;14.24;48.74;100971.70;1730663;82;25745;-60
2021/04/14 08:32:55;;;;;;;25.77;12.58;;;;;;;14.32;48.21;100973.64;1732304;81;26536;-60
2021/04/14 08:35:34;;;;;;;;;;;;;;;14.40;48.35;100961.01;1721152;82;25442;-60
2021/04/14 08:38:10;;;;;;;24.60;13.13;;;;;;;14.44;48.19;100964.25;1727341;82;25895;-59
2021/04/14 08:40:57;;;;;;;25.65;14.15;;;;;;;14.56;47.84;100961.65;1697823;82;27342;-60
2021/04/14 08:43:39;;;;;;;21.00;13.25;;;;;;;14.71;47.82;100952.97;1727356;82;25844;-60
2021/04/14 08:46:27;;;;;;;26.55;13.38;;;;;;;14.94;47.25;100957.34;1731043;81;25685;-60
2021/04/14 08:49:03;;;;;;;38.20;12.55;;;;;;;15.22;46.98;100952.26;1720237;81;25909;-60
2021/04/14 08:54:26;;;;;;;26.30;12.60;;;;;;;15.67;45.59;100934.80;1613086;88;27565;-60
2021/04/14 08:56:55;;;;;;;21.68;12.28;;;;;;;15.97;45.17;100932.48;1597698;88;26083;-60
2021/04/14 08:59:26;;;;;;;23.80;11.25;;;;;;;16.06;44.17;100935.55;1612923;87;25757;-60
2021/04/14 09:01:55;;;;;;;28.45;13.48;;;;;;;16.21;43.89;100934.38;1627481;87;25757;-59
2021/04/14 09:04:24;;;;;;;30.40;11.93;;;;;;;16.38;43.65;100931.16;1642163;86;25757;-60
2021/04/14 09:06:54;;;;;;;31.77;11.73;;;;;;;16.55;43.25;100927.90;1641742;86;27488;-60
2021/04/14 09:09:28;;;;;;;30.43;11.85;;;;;;;16.83;43.39;100922.08;1608729;89;26195;-60
2021/04/14 09:12:06;;;;;;;26.80;12.33;;;;;;;17.06;41.05;100913.22;1612207;87;25674;-60
2021/04/14 09:14:36;;;;;;;26.68;11.93;;;;;;;17.05;41.59;100906.92;1612065;89;25821;-60
2021/04/14 09:17:18;;;;;;;22.93;10.93;;;;;;;17.04;41.17;100904.39;1612049;87;26097;-60
2021/04/14 09:19:50;;;;;;;20.80;11.57;;;;;;;17.07;41.30;100899.11;1641893;86;27556;-59
2021/04/14 09:22:27;;;;;;;34.63;10.10;;;;;;;17.26;40.74;100897.86;1640914;86;25845;-60
2021/04/14 09:25:09;;;;;;;27.30;11.40;;;;;;;17.12;41.18;100892.13;1612026;87;25708;-59
2021/04/14 09:27:50;;;;;;;19.25;10.30;;;;;;;16.99;41.24;100897.26;1612317;88;25781;-59
2021/04/14 09:30:40;;;;;;;19.27;9.80;;;;;;;16.83;41.61;100884.56;1838250;78;26129;-59
2021/04/14 09:33:15;;;;;;;18.75;10.48;;;;;;;16.57;41.85;100877.51;1743229;82;25716;-60
2021/04/14 09:35:54;;;;;;;17.65;9.15;;;;;;;16.63;42.07;100884.13;1777696;80;32451;-60
2021/04/14 09:38:34;;;;;;;22.65;10.68;;;;;;;16.64;41.68;100872.20;1775384;80;25649;-60
2021/04/14 09:41:12;;;;;;;20.52;9.83;;;;;;;16.64;41.52;100874.92;1753465;80;25517;-59
2021/04/14 09:43:45;;;;;;;20.68;9.83;;;;;;;16.74;41.57;100877.80;1750012;80;25812;-59
2021/04/14 09:46:37;;;;;;;23.55;9.45;;;;;;;16.62;41.16;100869.67;1746655;81;25785;-57
2021/04/14 09:49:19;;;;;;;16.73;8.50;;;;;;;16.53;41.12;100868.00;1752929;80;27624;-59
2021/04/14 09:52:00;;;;;;;18.27;8.05;;;;;;;16.40;40.86;100876.67;1736977;81;25706;-59
2021/04/14 09:54:33;;;;;;;15.28;8.50;;;;;;;16.27;40.91;100875.33;1749510;80;25752;-58
2021/04/14 09:57:04;;;;;;;19.65;7.80;;;;;;;16.24;41.12;100869.39;1771464;80;25725;-59
2021/04/14 09:59:38;;;;;;;13.03;7.83;;;;;;;16.40;41.10;100874.83;1762215;80;25932;-59
2021/04/14 10:02:20;;;;;;;15.75;7.47;;;;;;;16.54;40.57;100871.05;1763299;80;28513;-59
2021/04/14 10:04:50;;;;;;;28.45;8.68;;;;;;;16.74;40.47;100868.79;1748391;80;25710;-60
2021/04/14 10:07:23;;;;;;;36.73;8.83;;;;;;;17.02;39.22;100870.61;1746643;82;25682;-60
2021/04/14 10:09:51;;;;;;;25.03;6.83;;;;;;;17.10;38.36;100859.36;1748938;80;25816;-60
2021/04/14 10:12:29;;;;;;;19.85;6.50;;;;;;;17.12;38.25;100856.79;1715404;83;25708;-60
2021/04/14 10:15:00;;;;;;;20.95;7.08;;;;;;;17.04;36.43;100862.27;1747733;80;27398;-59
2021/04/14 10:17:31;;;;;;;11.97;6.75;;;;;;;16.92;37.47;100864.50;1746788;82;25769;-60
2021/04/14 10:20:18;;;;;;;14.28;6.28;;;;;;;16.89;37.87;100859.41;1745052;80;25664;-60
2021/04/14 10:22:50;;;;;;;25.30;7.35;;;;;;;16.76;38.25;100862.67;1715132;80;25696;-60
2021/04/14 10:25:29;;;;;;;14.07;6.25;;;;;;;16.64;38.24;100866.78;1774482;80;25673;-60
2021/04/14 10:28:12;;;;;;;22.95;6.25;;;;;;;16.57;38.71;100859.33;1753270;80;27463;-60
2021/04/14 10:30:48;;;;;;;13.68;7.03;;;;;;;16.49;38.84;100858.00;1731171;81;26577;-60
2021/04/14 10:33:25;;;;;;;17.02;6.35;;;;;;;16.42;38.93;100861.91;1757312;81;26212;-60
2021/04/14 10:35:54;;;;;;;9.68;5.40;;;;;;;16.24;39.21;100862.61;1743782;81;25761;-58
2021/04/14 10:38:33;;;;;;;19.42;6.05;;;;;;;16.24;39.27;100858.05;1726943;81;25742;-59
2021/04/14 10:41:25;;;;;;;16.07;5.33;;;;;;;16.28;39.30;100857.19;1705665;81;27552;-59
2021/04/14 10:43:53;;;;;;;12.28;5.53;;;;;;;16.36;39.03;100854.46;1734693;82;26288;-60
2021/04/14 10:46:32;;;;;;;12.40;6.20;;;;;;;16.43;38.80;100855.45;1700208;83;25763;-62
2021/04/14 10:49:05;;;;;;;16.80;6.55;;;;;;;16.47;38.53;100853.24;1706133;82;25773;-59
2021/04/14 10:51:41;;;;;;;21.85;6.05;;;;;;;16.49;38.76;100850.37;1713040;82;25360;-61
2021/04/14 10:54:13;;;;;;;19.42;6.03;;;;;;;16.55;38.66;100854.58;1722592;81;27528;-62
2021/04/14 10:56:45;;;;;;;9.58;5.80;;;;;;;16.57;38.41;100853.06;1720588;82;25655;-59
2021/04/14 10:59:18;;;;;;;17.23;6.17;;;;;;;16.64;38.70;100854.55;1715511;81;25651;-59
2021/04/14 11:01:48;;;;;;;19.30;6.73;;;;;;;16.63;38.08;100847.45;1716961;81;25860;-58
2021/04/14 11:04:24;;;;;;;18.50;6.20;;;;;;;16.54;38.22;100839.30;1716015;82;25695;-58
2021/04/14 11:07:01;;;;;;;12.68;5.92;;;;;;;16.54;38.36;100847.45;1716692;82;28453;-59
2021/04/14 11:09:33;;;;;;;22.95;5.85;;;;;;;16.50;38.19;100849.33;1717824;81;25735;-59
2021/04/14 11:12:05;;;;;;;20.37;5.17;;;;;;;16.45;38.24;100841.70;1717387;82;25725;-59
2021/04/14 11:14:38;;;;;;;24.70;5.67;;;;;;;16.39;38.22;100835.12;1737422;81;25702;-60
2021/04/14 11:17:08;;;;;;;20.35;7.80;;;;;;;16.34;38.27;100840.73;1710893;83;26049;-60
2021/04/14 11:19:43;;;;;;;28.38;8.15;;;;;;;16.27;38.13;100833.25;1721259;81;28308;-59
2021/04/14 11:22:12;;;;;;;32.60;8.90;;;;;;;16.21;38.00;100838.02;1708035;82;25676;-59
2021/04/14 11:24:55;;;;;;;15.98;7.35;;;;;;;16.13;37.92;100844.81;1711170;81;26329;-59
2021/04/14 11:27:29;;;;;;;17.52;8.53;;;;;;;16.09;37.80;100837.53;1743566;81;25986;-59
2021/04/14 11:30:18;;;;;;;10.18;5.22;;;;;;;16.02;37.34;100835.66;1728512;81;25817;-59
2021/04/14 11:32:59;;;;;;;21.12;6.87;;;;;;;15.94;37.26;100825.16;1725003;82;27534;-59
2021/04/14 11:35:48;;;;;;;18.62;4.58;;;;;;;15.88;37.27;100825.84;1731325;81;26231;-59
2021/04/14 11:38:40;;;;;;;22.35;5.50;;;;;;;15.76;37.11;100826.67;1762919;79;25649;-59
2021/04/14 11:41:28;;;;;;;23.10;5.53;;;;;;;15.62;36.86;100824.60;1779560;79;25761;-59
2021/04/14 11:43:58;;;;;;;17.82;4.78;;;;;;;15.55;37.35;100821.73;1786776;79;26066;-59
2021/04/14 11:46:38;;;;;;;25.80;6.58;;;;;;;15.52;37.70;100816.64;1734729;81;28468;-59
2021/04/14 11:49:11;;;;;;;13.55;5.50;;;;;;;15.41;38.49;100819.18;1736611;81;26157;-59